RJSARJAA

Guest
Details From RJSA - AOMORI
To RJAA - NARITA INTL
Flight Number -
Tags generated
Created
Modified
Stats Distance 299 nm / 553 km
Max Altitude 32,600 ft / 9,936 m
Waypoints 9
Social Downloads 0
Likes 0
Share VATSIM

Download

Looking for another format? Having issues loading an existing format? Contact us
Advertisement - Login to hide

Notes

Basic altitude profile: - Ascent Rate: 2500ft/min - Ascent Speed: 250kts - Cruise Altitude: 35000ft - Cruise Speed: 420kts - Descent Rate: 1500ft/min - Descent Speed: 250kts Options: - Use NATs: yes - Use PACOTS: yes - Use low airways: yes - Use high airways: yes

Route

RJSA YACHI V13 YTE V32 GOC RJAA

ID Type Via Altitude Latitude Longitude Leg Dist Tot Dist Heading (true) Name
O RJSA APT - 0 ft / 0 m 40.73327˚ 140.68859˚ - 0 nm - AOMORI
YACHI FIX - 5,200 ft / 1,585 m 40.49040˚ 140.66805˚ 14 nm 14 nm 184° / 184° -
MRE25 FIX V13 (AWY-LO) 8,800 ft / 2,682 m 40.32438˚ 140.64515˚ 10 nm 24 nm 186° / 186° -
HINAI FIX V13 (AWY-LO) 9,500 ft / 2,896 m 40.29169˚ 140.63832˚ 1 nm 26 nm 189° / 189° -
MRE37 FIX V13 (AWY-LO) 12,000 ft / 3,658 m 40.12544˚ 140.61653˚ 10 nm 36 nm 186° / 186° -
WAPPA FIX V13 (AWY-LO) 22,200 ft / 6,767 m 39.70113˚ 140.55155˚ 25 nm 62 nm 187° / 187° -
YTE VOR V13 (AWY-HI) 32,600 ft / 9,936 m 38.38862˚ 140.35795˚ 79 nm 141 nm 187° / 186° YAMAGATA VOR-DME
GOC VOR V32 (AWY-HI) 12,400 ft / 3,780 m 36.74437˚ 140.34985˚ 98 nm 240 nm 180° / 180° DAIGO VORTAC
O RJAA APT - 0 ft / 0 m 35.77655˚ 140.38277˚ 58 nm 298 nm 178° / 178° NARITA INTL

Altitude Profile

Advertisement - Login to hide

Weather


0- 5 10 15 20 25 30 35+ Temperature / ° C

Clouds and Precipitation
Forecast for 2017-12-14 06:00 UTC. Updated an hour ago

Ground ~20,000 ft ~40,000 ft Winds

RJSA

Details ICAO RJSA (AOJ)
Name AOMORI
Region Japan
Timezone Asia/Tokyo (UTC+9.0)
Stats Elevation 664 ft / 202 m (AMSL)
Location 40.733272° 140.688594°
Runways 1
Magnetic Variation 8.939° W

METAR

RJSA 140400Z 29003KT 230V340 9999 FEW010 SCT030 03/M02 Q1018

Decode

TAF

TAF AMD TAF AMD RJSA 140220Z 1402/1506 24007KT 9999 FEW010 BKN020 BKN030 TEMPO 1409/1412 3000 -SHSN TEMPO 1412/1421 1500 -SHSN FEW005 BKN008 BKN015 TEMPO 1421/1506 3000 -SHSN

Decode

Departure Runways

ID Width Length Bearing (true) Bearing (mag) Surface Threshold Offset Overrun Length
06 200 ft / 61 m 9,838 ft / 2,999 m 51.79° 60.73° Asphalt 0 ft / 0 m 200 ft / 61 m
24 200 ft / 61 m 9,838 ft / 2,999 m 231.81° 240.75° Asphalt 0 ft / 0 m 200 ft / 61 m

RJAA

Details ICAO RJAA (NRT)
Name NARITA INTL
Region Japan
Timezone Asia/Tokyo (UTC+9.0)
Stats Elevation 141 ft / 43 m (AMSL)
Location 35.776552° 140.382770°
Runways 2
Magnetic Variation 7.405° W

METAR

RJAA 140430Z 34010KT 9999 FEW030 09/M05 Q1019 NOSIG RMK 1CU030 A3012

Decode

TAF

TAF RJAA 132306Z 1400/1506 33012KT 9999 FEW030= TAF RJBB 132305Z 1400/1506 34015KT 9999 FEW020 SCT050 BECMG 1415/1418 04008KT

Decode

Destination Runways

ID Width Length Bearing (true) Bearing (mag) Surface Threshold Offset Overrun Length
16L 196 ft / 60 m 7,162 ft / 2,183 m 149.61° 157.02° Asphalt 190 ft / 58 m 0 ft / 0 m
16R 196 ft / 60 m 13,142 ft / 4,006 m 149.61° 157.02° Asphalt 0 ft / 0 m 410 ft / 125 m
34L 196 ft / 60 m 13,142 ft / 4,006 m 329.62° 337.03° Asphalt 0 ft / 0 m 415 ft / 126 m
34R 196 ft / 60 m 7,162 ft / 2,183 m 329.62° 337.03° Asphalt 190 ft / 58 m 0 ft / 0 m

Approach Navaids

Runway Type Ident Frequency Range Bearing (true) Bearing (mag) Slope Elevation
16L Localiser ITM 110.70 MHz 18 nm / 33 km 149.62° 157.02° - 141 ft / 43 m (AMSL)
16L Glidescope ITM 110.70 MHz 10 nm / 19 km 149.62° 157.02° 3.00° 141 ft / 43 m (AMSL)
16L DME ITM 110.70 MHz 18 nm / 33 km - - - 145 ft / 44 m (AMSL)
16R Localiser IKF 111.50 MHz 18 nm / 33 km 149.63° 157.03° - 141 ft / 43 m (AMSL)
16R Glidescope IKF 111.50 MHz 10 nm / 19 km 149.62° 157.02° 3.00° 141 ft / 43 m (AMSL)
16R DME IKF 111.50 MHz 18 nm / 33 km - - - 145 ft / 44 m (AMSL)
34L Localiser IYQ 111.90 MHz 18 nm / 33 km 329.61° 337.01° - 141 ft / 43 m (AMSL)
34L Glidescope IYQ 111.90 MHz 10 nm / 19 km 329.62° 337.02° 3.00° 141 ft / 43 m (AMSL)
34L DME IYQ 111.90 MHz 18 nm / 33 km - - - 153 ft / 47 m (AMSL)
34R Localiser ITJ 110.90 MHz 18 nm / 33 km 329.62° 337.02° - 141 ft / 43 m (AMSL)
34R Glidescope ITJ 110.90 MHz 10 nm / 19 km 329.62° 337.02° 3.00° 141 ft / 43 m (AMSL)
34R DME ITJ 110.90 MHz 18 nm / 33 km - - - 148 ft / 45 m (AMSL)